createdAt,value
2019-01-29T00:00:07.262Z,0.38
2019-01-29T00:02:36.466Z,0.40
2019-01-29T00:05:05.655Z,0.30
2019-01-29T00:07:33.640Z,0.25
2019-01-29T00:10:01.581Z,0.22
2019-01-29T00:12:29.939Z,0.21
2019-01-29T00:14:58.247Z,0.20
2019-01-29T00:17:26.244Z,0.21
2019-01-29T00:19:54.488Z,0.13
2019-01-29T00:22:22.280Z,0.12
2019-01-29T00:24:50.228Z,0.13
2019-01-29T00:27:18.000Z,0.12
2019-01-29T00:29:45.860Z,0.06
2019-01-29T00:32:13.842Z,0.04
2019-01-29T00:34:41.961Z,-0.03
2019-01-29T00:37:09.658Z,0.03
2019-01-29T00:39:37.715Z,0.06
2019-01-29T00:42:05.719Z,0.04
2019-01-29T00:44:33.693Z,0.05
2019-01-29T00:47:01.624Z,0.12
2019-01-29T00:49:29.574Z,0.11
2019-01-29T00:51:57.595Z,0.10
2019-01-29T00:54:25.593Z,0.10
2019-01-29T00:56:53.690Z,0.06
2019-01-29T00:59:21.892Z,0.05
2019-01-29T01:01:49.778Z,0.12
2019-01-29T01:04:17.698Z,0.21
2019-01-29T01:06:46.007Z,0.12
2019-01-29T01:09:14.061Z,0.22
2019-01-29T01:11:42.074Z,0.08
2019-01-29T01:14:10.001Z,0.10
2019-01-29T01:16:37.789Z,0.02
2019-01-29T01:19:06.193Z,0.00
2019-01-29T01:21:34.329Z,0.03
2019-01-29T01:24:02.270Z,0.07
2019-01-29T01:26:30.181Z,-0.04
2019-01-29T01:28:58.143Z,-0.09
2019-01-29T01:31:26.197Z,-0.12
2019-01-29T01:33:54.248Z,-0.15
2019-01-29T01:36:22.385Z,-0.15
2019-01-29T01:38:50.347Z,-0.20
2019-01-29T01:41:20.085Z,-0.24
2019-01-29T01:43:47.976Z,-0.31
2019-01-29T01:46:16.025Z,-0.26
2019-01-29T01:48:44.004Z,-0.32
2019-01-29T01:51:12.062Z,-0.27
2019-01-29T01:53:40.033Z,-0.27
2019-01-29T01:56:07.983Z,-0.33
2019-01-29T01:58:39.310Z,-0.30
2019-01-29T02:01:07.475Z,-0.33
2019-01-29T02:03:35.697Z,-0.40
2019-01-29T02:06:04.157Z,-0.42
2019-01-29T02:08:32.133Z,-0.41
2019-01-29T02:11:00.186Z,-0.48
2019-01-29T02:13:29.517Z,-0.40
2019-01-29T02:15:57.574Z,-0.43
2019-01-29T02:18:25.538Z,-0.44
2019-01-29T02:20:53.571Z,-0.28
2019-01-29T02:23:21.810Z,-0.31
2019-01-29T02:25:49.697Z,-0.25
2019-01-29T02:28:17.806Z,-0.24
2019-01-29T02:30:45.727Z,-0.32
2019-01-29T02:33:13.601Z,-0.38
2019-01-29T02:35:41.556Z,-0.36
2019-01-29T02:38:09.449Z,-0.34
2019-01-29T02:40:37.512Z,-0.25
2019-01-29T02:43:05.270Z,-0.16
2019-01-29T02:45:33.261Z,-0.21
2019-01-29T02:48:01.291Z,-0.32
2019-01-29T02:50:29.386Z,-0.36
2019-01-29T02:52:57.369Z,-0.33
2019-01-29T02:55:25.209Z,-0.40
2019-01-29T02:57:53.412Z,-0.33
2019-01-29T03:00:23.214Z,-0.31
2019-01-29T03:02:51.503Z,-0.26
2019-01-29T03:05:19.452Z,-0.32
2019-01-29T03:07:47.540Z,-0.30
2019-01-29T03:10:17.382Z,-0.31
2019-01-29T03:12:46.447Z,-0.29
2019-01-29T03:15:16.764Z,-0.34
2019-01-29T03:17:44.848Z,-0.34
2019-01-29T03:20:13.123Z,-0.42
2019-01-29T03:22:41.173Z,-0.44
2019-01-29T03:25:09.628Z,-0.37
2019-01-29T03:27:37.497Z,-0.34
2019-01-29T03:30:06.293Z,-0.38
2019-01-29T03:32:34.331Z,-0.32
2019-01-29T03:35:02.562Z,-0.34
2019-01-29T03:37:30.738Z,-0.34
2019-01-29T03:39:58.688Z,-0.36
2019-01-29T03:42:26.612Z,-0.41
2019-01-29T03:44:54.533Z,-0.43
2019-01-29T03:47:22.493Z,-0.45
2019-01-29T03:49:50.703Z,-0.46
2019-01-29T03:52:18.744Z,-0.51
2019-01-29T03:54:47.161Z,-0.56
2019-01-29T03:57:15.321Z,-0.53
2019-01-29T03:59:43.463Z,-0.55
2019-01-29T04:02:11.578Z,-0.60
2019-01-29T04:04:39.755Z,-0.55
2019-01-29T04:07:07.566Z,-0.48
2019-01-29T04:09:35.579Z,-0.46
2019-01-29T04:12:04.665Z,-0.42
2019-01-29T04:14:32.773Z,-0.36
2019-01-29T04:17:00.877Z,-0.43
2019-01-29T04:19:28.962Z,-0.44
2019-01-29T04:21:56.972Z,-0.46
2019-01-29T04:24:25.122Z,-0.47
2019-01-29T04:26:52.977Z,-0.40
2019-01-29T04:29:20.978Z,-0.36
2019-01-29T04:31:48.945Z,-0.41
2019-01-29T04:34:16.876Z,-0.36
2019-01-29T04:36:45.188Z,-0.37
2019-01-29T04:39:14.093Z,-0.46
2019-01-29T04:41:42.428Z,-0.48
2019-01-29T04:44:10.480Z,-0.45
2019-01-29T04:46:38.733Z,-0.35
2019-01-29T04:49:06.977Z,-0.32
2019-01-29T04:51:34.955Z,-0.32
2019-01-29T04:54:02.946Z,-0.24
2019-01-29T04:56:30.934Z,-0.22
2019-01-29T04:58:59.086Z,-0.18
2019-01-29T05:01:27.245Z,-0.22
2019-01-29T05:03:55.131Z,-0.29
2019-01-29T05:06:23.195Z,-0.30
2019-01-29T05:08:51.141Z,-0.28
2019-01-29T05:11:19.189Z,-0.23
2019-01-29T05:13:47.303Z,-0.27
2019-01-29T05:16:15.338Z,-0.41
2019-01-29T05:18:43.845Z,-0.46
2019-01-29T05:21:11.910Z,-0.47
2019-01-29T05:23:39.959Z,-0.40
2019-01-29T05:26:08.074Z,-0.41
2019-01-29T05:28:36.126Z,-0.33
2019-01-29T05:31:04.398Z,-0.29
2019-01-29T05:33:32.345Z,-0.34
2019-01-29T05:36:00.251Z,-0.28
2019-01-29T05:38:28.188Z,-0.30
2019-01-29T05:40:56.249Z,-0.46
2019-01-29T05:43:24.382Z,-0.51
2019-01-29T05:45:52.425Z,-0.49
2019-01-29T05:48:20.502Z,-0.46
2019-01-29T05:50:48.559Z,-0.57
2019-01-29T05:53:16.621Z,-0.64
2019-01-29T05:55:44.492Z,-0.66
2019-01-29T05:58:12.500Z,-0.68
2019-01-29T06:00:41.285Z,-0.68
2019-01-29T06:03:10.905Z,-0.71
2019-01-29T06:05:40.435Z,-0.69
2019-01-29T06:08:08.639Z,-0.66
2019-01-29T06:10:36.805Z,-0.66
2019-01-29T06:13:05.155Z,-0.71
2019-01-29T06:15:33.232Z,-0.63
2019-01-29T06:18:01.264Z,-0.61
2019-01-29T06:20:29.374Z,-0.67
2019-01-29T06:22:57.404Z,-0.73
2019-01-29T06:25:25.517Z,-0.76
2019-01-29T06:27:54.771Z,-0.80
2019-01-29T06:30:23.015Z,-0.89
2019-01-29T06:32:51.921Z,-0.81
2019-01-29T06:35:20.145Z,-0.75
2019-01-29T06:37:48.430Z,-0.69
2019-01-29T06:40:18.450Z,-0.78
2019-01-29T06:42:46.496Z,-0.83
2019-01-29T06:45:14.896Z,-0.86
2019-01-29T06:47:42.809Z,-0.85
2019-01-29T06:50:13.262Z,-1.00
2019-01-29T06:52:41.230Z,-1.02
2019-01-29T06:55:11.037Z,-1.01
2019-01-29T06:57:39.017Z,-0.95
2019-01-29T07:00:09.333Z,-0.88
2019-01-29T07:02:37.220Z,-0.85
2019-01-29T07:05:07.132Z,-0.90
2019-01-29T07:07:35.559Z,-0.97
2019-01-29T07:10:05.464Z,-0.94
2019-01-29T07:12:33.711Z,-1.01
2019-01-29T07:15:01.545Z,-1.03
2019-01-29T07:17:34.237Z,-0.87
2019-01-29T07:20:05.037Z,-0.84
2019-01-29T07:22:32.841Z,-0.74
2019-01-29T07:25:01.202Z,-0.52
2019-01-29T07:27:29.119Z,-0.47
2019-01-29T07:29:57.062Z,-0.37
2019-01-29T07:32:25.040Z,-0.38
2019-01-29T07:34:52.992Z,-0.53
2019-01-29T07:37:22.088Z,-0.55
2019-01-29T07:39:50.348Z,-0.44
2019-01-29T07:42:19.238Z,-0.44
2019-01-29T07:44:47.330Z,-0.35
2019-01-29T07:47:15.377Z,-0.38
2019-01-29T07:49:43.447Z,-0.37
2019-01-29T07:52:12.839Z,-0.40
2019-01-29T07:54:40.959Z,-0.23
2019-01-29T07:57:09.303Z,-0.10
2019-01-29T07:59:37.288Z,0.07
2019-01-29T08:02:06.204Z,0.04
2019-01-29T08:04:34.261Z,-0.04
2019-01-29T08:07:02.366Z,0.11
2019-01-29T08:09:32.021Z,0.17
2019-01-29T08:11:59.989Z,0.23
2019-01-29T08:14:28.078Z,0.36
2019-01-29T08:16:55.816Z,0.39
2019-01-29T08:19:23.919Z,0.56
2019-01-29T08:21:51.982Z,1.15
2019-01-29T08:24:21.001Z,1.46
2019-01-29T08:26:51.854Z,1.71
2019-01-29T08:29:19.727Z,2.29
2019-01-29T08:31:48.706Z,2.61
2019-01-29T08:34:16.666Z,3.01
2019-01-29T08:36:44.609Z,3.41
2019-01-29T08:39:12.768Z,3.67
2019-01-29T08:41:41.036Z,3.94
2019-01-29T08:44:09.038Z,4.32
2019-01-29T08:46:37.223Z,4.67
2019-01-29T08:49:05.178Z,4.96
2019-01-29T08:51:33.193Z,5.41
2019-01-29T08:54:01.123Z,5.41
2019-01-29T08:56:29.117Z,5.84
2019-01-29T08:58:57.184Z,6.15
2019-01-29T09:01:25.081Z,5.85
2019-01-29T09:03:53.084Z,6.39
2019-01-29T09:06:21.217Z,6.56
2019-01-29T09:08:49.082Z,5.99
2019-01-29T09:11:20.517Z,6.48
2019-01-29T09:13:48.583Z,6.54
2019-01-29T09:16:17.580Z,7.18
2019-01-29T09:18:45.709Z,7.50
2019-01-29T09:21:13.962Z,7.02
2019-01-29T09:23:41.907Z,6.63
2019-01-29T09:26:10.088Z,7.36
2019-01-29T09:28:38.188Z,7.23
2019-01-29T09:31:08.116Z,7.33
2019-01-29T09:33:36.135Z,7.48
2019-01-29T09:36:04.294Z,8.05
2019-01-29T09:38:32.149Z,8.75
2019-01-29T09:41:00.308Z,8.59
2019-01-29T09:43:28.209Z,8.28
2019-01-29T09:46:09.220Z,8.35
2019-01-29T09:48:37.212Z,8.86
2019-01-29T09:51:05.185Z,9.47
2019-01-29T09:53:33.366Z,10.22
2019-01-29T09:56:01.496Z,10.35
2019-01-29T09:58:29.329Z,9.67
2019-01-29T10:00:57.402Z,10.36
2019-01-29T10:03:25.310Z,10.85
2019-01-29T10:05:53.336Z,11.18
2019-01-29T10:08:21.440Z,11.20
2019-01-29T10:10:49.497Z,11.55
2019-01-29T10:13:17.360Z,11.37
2019-01-29T10:15:45.311Z,10.72
2019-01-29T10:18:13.285Z,10.37
2019-01-29T10:20:41.167Z,10.00
2019-01-29T10:23:09.229Z,10.70
2019-01-29T10:25:38.235Z,11.20
2019-01-29T10:28:06.209Z,10.74
2019-01-29T10:30:34.144Z,11.05
2019-01-29T10:33:02.135Z,10.48
2019-01-29T10:35:30.193Z,10.99
2019-01-29T10:37:58.101Z,10.93
2019-01-29T10:40:26.237Z,11.61
2019-01-29T10:42:54.861Z,11.50
2019-01-29T10:45:24.099Z,11.34
2019-01-29T10:47:51.896Z,11.16
2019-01-29T10:50:21.265Z,11.41
2019-01-29T10:52:49.109Z,11.40
2019-01-29T10:55:16.863Z,11.25
2019-01-29T10:57:44.928Z,11.37
2019-01-29T11:00:26.974Z,12.19
2019-01-29T11:02:54.639Z,11.47
2019-01-29T11:05:22.923Z,11.43
2019-01-29T11:07:50.586Z,11.84
2019-01-29T11:10:18.625Z,11.36
2019-01-29T11:12:46.518Z,12.30
2019-01-29T11:15:20.005Z,11.82
2019-01-29T11:17:48.197Z,10.82
2019-01-29T11:20:16.936Z,10.08
2019-01-29T11:22:45.314Z,9.47
2019-01-29T11:25:19.520Z,9.53
2019-01-29T11:27:49.107Z,9.82
2019-01-29T11:30:20.926Z,10.16
2019-01-29T11:32:49.120Z,10.59
2019-01-29T11:35:17.114Z,10.63
2019-01-29T11:37:47.993Z,10.31
2019-01-29T11:40:18.312Z,11.01
2019-01-29T11:42:45.999Z,11.19
2019-01-29T11:45:26.100Z,11.45
2019-01-29T11:47:53.703Z,11.73
2019-01-29T11:50:21.415Z,11.22
2019-01-29T11:52:50.813Z,10.30
2019-01-29T11:55:18.507Z,10.29
2019-01-29T11:57:48.867Z,10.57
2019-01-29T12:00:23.680Z,10.02
2019-01-29T12:02:51.457Z,8.99
2019-01-29T12:05:19.214Z,9.30
2019-01-29T12:07:47.061Z,9.23
2019-01-29T12:10:15.239Z,9.13
2019-01-29T12:12:43.270Z,8.75
2019-01-29T12:15:12.859Z,8.80
2019-01-29T12:17:40.856Z,8.66
2019-01-29T12:20:09.718Z,8.92
2019-01-29T12:22:37.643Z,8.97
2019-01-29T12:25:06.928Z,9.56
2019-01-29T12:27:34.613Z,10.09
2019-01-29T12:30:02.439Z,10.05
2019-01-29T12:32:30.127Z,10.30
2019-01-29T12:34:57.731Z,10.36
2019-01-29T12:37:25.378Z,10.06
2019-01-29T12:39:54.472Z,9.60
2019-01-29T12:42:24.619Z,9.67
2019-01-29T12:44:52.172Z,9.24
2019-01-29T12:47:20.255Z,8.93
2019-01-29T12:49:48.192Z,8.97
2019-01-29T12:52:28.182Z,9.52
2019-01-29T12:54:56.298Z,9.26
2019-01-29T12:57:24.302Z,9.80
2019-01-29T12:59:52.266Z,9.87
2019-01-29T13:02:20.146Z,10.61
2019-01-29T13:04:48.286Z,10.23
2019-01-29T13:07:16.318Z,10.22
2019-01-29T13:09:44.261Z,10.28
2019-01-29T13:12:12.399Z,10.88
2019-01-29T13:14:40.486Z,11.29
2019-01-29T13:17:08.556Z,10.68
2019-01-29T13:19:36.358Z,10.94
2019-01-29T13:22:04.078Z,11.13
2019-01-29T13:24:31.877Z,11.40
2019-01-29T13:26:59.599Z,10.81
2019-01-29T13:29:27.279Z,10.96
2019-01-29T13:31:55.014Z,9.90
2019-01-29T13:34:23.588Z,10.10
2019-01-29T13:36:51.590Z,10.22
2019-01-29T13:39:19.927Z,10.26
2019-01-29T13:41:48.042Z,10.22
2019-01-29T13:44:16.141Z,9.98
2019-01-29T13:46:44.143Z,9.44
2019-01-29T13:49:12.173Z,9.66
2019-01-29T13:51:40.330Z,9.62
2019-01-29T13:54:08.281Z,8.94
2019-01-29T13:56:38.917Z,8.53
2019-01-29T13:59:06.339Z,8.50
2019-01-29T14:01:34.375Z,8.43
2019-01-29T14:04:06.340Z,8.45
2019-01-29T14:06:32.614Z,8.06
2019-01-29T14:09:00.555Z,8.16
2019-01-29T14:11:28.512Z,8.21
2019-01-29T14:13:56.545Z,8.13
2019-01-29T14:16:24.819Z,8.27
2019-01-29T14:18:52.922Z,8.02
2019-01-29T14:21:21.343Z,8.00
2019-01-29T14:23:49.302Z,7.96
2019-01-29T14:26:17.699Z,7.99
2019-01-29T14:28:45.716Z,7.98
2019-01-29T14:31:13.840Z,7.90
2019-01-29T14:33:41.827Z,7.79
2019-01-29T14:36:16.586Z,7.65
2019-01-29T14:39:09.165Z,7.56
2019-01-29T14:41:37.459Z,7.12
2019-01-29T14:44:08.480Z,6.62
2019-01-29T14:46:36.548Z,6.45
2019-01-29T14:49:04.720Z,6.20
2019-01-29T14:51:32.772Z,6.04
2019-01-29T14:54:00.913Z,5.91
2019-01-29T14:56:29.344Z,5.89
2019-01-29T14:58:57.459Z,5.82
2019-01-29T15:01:25.760Z,5.69
2019-01-29T15:03:53.916Z,5.60
2019-01-29T15:06:22.047Z,5.51
2019-01-29T15:08:50.298Z,5.38
2019-01-29T15:11:19.132Z,5.29
2019-01-29T15:13:47.040Z,5.20
2019-01-29T15:16:30.203Z,5.17
2019-01-29T15:19:03.641Z,5.02
2019-01-29T15:21:37.776Z,5.01
2019-01-29T15:24:01.759Z,4.91
2019-01-29T15:26:29.611Z,4.73
2019-01-29T15:28:57.637Z,4.70
2019-01-29T15:31:25.653Z,4.74
2019-01-29T15:33:53.479Z,4.57
2019-01-29T15:36:21.465Z,4.44
2019-01-29T15:38:49.351Z,4.34
2019-01-29T15:41:17.319Z,4.28
2019-01-29T15:43:45.307Z,4.10
2019-01-29T15:46:13.440Z,4.02
2019-01-29T15:48:41.142Z,3.95
2019-01-29T15:51:08.967Z,3.91
2019-01-29T15:53:37.000Z,3.88
2019-01-29T15:56:05.034Z,3.89
2019-01-29T15:58:32.912Z,3.84
2019-01-29T16:01:00.899Z,3.82
2019-01-29T16:03:29.868Z,3.77
2019-01-29T16:05:57.916Z,3.73
2019-01-29T16:08:26.013Z,3.75
2019-01-29T16:10:54.019Z,3.65
2019-01-29T16:13:22.097Z,3.61
2019-01-29T16:15:50.040Z,3.62
2019-01-29T16:18:18.229Z,3.66
2019-01-29T16:20:46.238Z,3.59
2019-01-29T16:23:14.444Z,3.53
2019-01-29T16:25:42.581Z,3.53
2019-01-29T16:28:10.560Z,3.49
2019-01-29T16:30:38.736Z,3.46
2019-01-29T16:33:06.964Z,3.43
2019-01-29T16:35:35.212Z,3.45
2019-01-29T16:38:03.834Z,3.43
2019-01-29T16:40:32.134Z,3.42
2019-01-29T16:43:00.182Z,3.41
2019-01-29T16:45:29.941Z,3.50
2019-01-29T16:47:58.114Z,3.46
2019-01-29T16:50:28.104Z,3.37
2019-01-29T16:52:56.224Z,3.31
2019-01-29T16:55:24.601Z,3.32
2019-01-29T16:57:52.910Z,3.24
2019-01-29T17:00:25.489Z,3.10
2019-01-29T17:02:53.534Z,2.85
2019-01-29T17:05:21.799Z,2.88
2019-01-29T17:07:49.833Z,2.68
2019-01-29T17:10:18.320Z,2.56
2019-01-29T17:12:46.172Z,2.51
2019-01-29T17:15:19.276Z,2.53
2019-01-29T17:17:47.286Z,2.47
2019-01-29T17:20:17.843Z,2.43
2019-01-29T17:22:45.925Z,2.28
2019-01-29T17:25:13.839Z,2.21
2019-01-29T17:27:41.759Z,2.12
2019-01-29T17:30:14.193Z,2.08
2019-01-29T17:32:42.139Z,2.00
2019-01-29T17:35:10.223Z,1.82
2019-01-29T17:37:38.121Z,1.68
2019-01-29T17:40:07.076Z,1.60
2019-01-29T17:42:35.071Z,1.53
2019-01-29T17:45:03.033Z,1.33
2019-01-29T17:47:32.077Z,1.30
2019-01-29T17:50:01.724Z,1.26
2019-01-29T17:52:29.559Z,1.14
2019-01-29T17:54:57.668Z,1.12
2019-01-29T17:57:25.729Z,1.07
2019-01-29T17:59:53.597Z,0.99
2019-01-29T18:02:21.433Z,0.84
2019-01-29T18:04:49.332Z,0.77
2019-01-29T18:07:17.340Z,0.68
2019-01-29T18:09:45.359Z,0.62
2019-01-29T18:12:13.394Z,0.61
2019-01-29T18:14:41.495Z,0.63
2019-01-29T18:17:09.566Z,0.61
2019-01-29T18:19:37.591Z,0.65
2019-01-29T18:22:05.713Z,0.56
2019-01-29T18:24:33.772Z,0.53
2019-01-29T18:27:01.813Z,0.53
2019-01-29T18:29:29.832Z,0.55
2019-01-29T18:31:57.988Z,0.49
2019-01-29T18:34:26.133Z,0.50
2019-01-29T18:36:54.141Z,0.52
2019-01-29T18:39:23.655Z,0.53
2019-01-29T18:41:51.697Z,0.42
2019-01-29T18:44:19.643Z,0.34
2019-01-29T18:46:47.666Z,0.33
2019-01-29T18:49:15.717Z,0.32
2019-01-29T18:51:43.822Z,0.31
2019-01-29T18:54:11.865Z,0.20
2019-01-29T18:56:39.959Z,0.20
2019-01-29T18:59:08.023Z,0.18
2019-01-29T19:01:36.313Z,0.15
2019-01-29T19:04:08.472Z,0.15
2019-01-29T19:06:36.648Z,0.16
2019-01-29T19:09:06.979Z,0.18
2019-01-29T19:11:34.903Z,0.18
2019-01-29T19:14:03.164Z,0.21
2019-01-29T19:16:31.178Z,0.21
2019-01-29T19:18:59.244Z,0.14
2019-01-29T19:21:27.350Z,0.13
2019-01-29T19:23:55.282Z,0.19
2019-01-29T19:26:23.204Z,0.21
2019-01-29T19:28:51.307Z,0.31
2019-01-29T19:31:19.344Z,0.37
2019-01-29T19:33:47.401Z,0.42
2019-01-29T19:36:15.306Z,0.41
2019-01-29T19:38:43.235Z,0.44
2019-01-29T19:41:13.905Z,0.35
2019-01-29T19:43:42.030Z,0.42
2019-01-29T19:46:09.863Z,0.51
2019-01-29T19:48:38.106Z,0.59
2019-01-29T19:51:06.014Z,0.65
2019-01-29T19:53:34.109Z,0.69
2019-01-29T19:56:02.091Z,0.73
2019-01-29T19:58:32.346Z,0.81
2019-01-29T20:01:00.033Z,0.84
2019-01-29T20:03:27.988Z,0.85
2019-01-29T20:05:56.443Z,0.84
2019-01-29T20:08:24.334Z,0.84
2019-01-29T20:10:52.263Z,0.85
2019-01-29T20:13:20.255Z,0.91
2019-01-29T20:15:48.302Z,0.94
2019-01-29T20:18:16.419Z,0.95
2019-01-29T20:20:44.349Z,0.95
2019-01-29T20:23:12.255Z,0.98
2019-01-29T20:25:40.178Z,1.06
2019-01-29T20:28:09.125Z,1.08
2019-01-29T20:30:38.183Z,1.09
2019-01-29T20:33:06.724Z,1.12
2019-01-29T20:35:35.183Z,1.11
2019-01-29T20:38:03.349Z,1.17
2019-01-29T20:40:31.321Z,1.20
2019-01-29T20:42:59.304Z,1.24
2019-01-29T20:45:27.360Z,1.26
2019-01-29T20:47:55.359Z,1.31
2019-01-29T20:50:28.821Z,1.31
2019-01-29T20:52:57.804Z,1.30
2019-01-29T20:55:25.881Z,1.32
2019-01-29T20:57:53.930Z,1.36
2019-01-29T21:00:24.971Z,1.41
2019-01-29T21:02:52.896Z,1.36
2019-01-29T21:05:21.219Z,1.43
2019-01-29T21:07:49.036Z,1.40
2019-01-29T21:10:18.474Z,1.42
2019-01-29T21:12:46.524Z,1.43
2019-01-29T21:15:15.826Z,1.45
2019-01-29T21:17:44.036Z,1.44
2019-01-29T21:20:14.444Z,1.49
2019-01-29T21:22:42.592Z,1.50
2019-01-29T21:25:10.684Z,1.46
2019-01-29T21:27:38.928Z,1.46
2019-01-29T21:30:15.271Z,1.36
2019-01-29T21:32:43.364Z,1.33
2019-01-29T21:35:11.434Z,1.19
2019-01-29T21:37:39.522Z,1.12
2019-01-29T21:40:08.048Z,1.16
2019-01-29T21:42:36.181Z,1.15
2019-01-29T21:45:05.562Z,1.23
2019-01-29T21:47:33.695Z,1.09
2019-01-29T21:50:11.374Z,1.06
2019-01-29T21:52:31.792Z,1.09
2019-01-29T21:54:59.645Z,1.18
2019-01-29T21:57:27.733Z,1.19
2019-01-29T21:59:55.980Z,1.19
2019-01-29T22:02:25.180Z,1.19
2019-01-29T22:04:53.398Z,1.21
2019-01-29T22:07:22.564Z,1.23
2019-01-29T22:09:50.455Z,1.21
2019-01-29T22:12:18.300Z,1.24
2019-01-29T22:14:48.161Z,1.19
2019-01-29T22:17:16.251Z,1.23
2019-01-29T22:19:44.201Z,1.24
2019-01-29T22:22:12.245Z,1.20
2019-01-29T22:24:40.242Z,1.19
2019-01-29T22:27:08.052Z,1.24
2019-01-29T22:29:36.172Z,1.23
2019-01-29T22:32:06.354Z,1.26
2019-01-29T22:34:33.957Z,1.21
2019-01-29T22:37:01.598Z,1.15
2019-01-29T22:39:29.698Z,1.09
2019-01-29T22:41:57.758Z,1.05
2019-01-29T22:44:25.706Z,1.07
2019-01-29T22:46:53.671Z,1.06
2019-01-29T22:49:21.740Z,1.06
2019-01-29T22:51:49.814Z,1.15
2019-01-29T22:54:17.894Z,1.05
2019-01-29T22:56:45.793Z,1.04
2019-01-29T22:59:14.025Z,1.07
2019-01-29T23:01:42.258Z,1.10
2019-01-29T23:04:21.869Z,1.04
2019-01-29T23:07:10.904Z,1.00
2019-01-29T23:09:38.895Z,0.98
2019-01-29T23:12:06.702Z,1.05
2019-01-29T23:14:34.512Z,1.04
2019-01-29T23:17:02.603Z,1.14
2019-01-29T23:19:30.588Z,0.99
2019-01-29T23:21:58.440Z,0.97
2019-01-29T23:24:26.491Z,0.96
2019-01-29T23:26:54.521Z,0.96
2019-01-29T23:29:22.536Z,0.86
2019-01-29T23:31:50.567Z,0.98
2019-01-29T23:34:18.474Z,1.03
2019-01-29T23:36:46.394Z,1.08
2019-01-29T23:39:14.424Z,1.06
2019-01-29T23:41:42.439Z,1.00
2019-01-29T23:44:10.537Z,0.99
2019-01-29T23:46:38.584Z,0.96
2019-01-29T23:49:06.765Z,0.97
2019-01-29T23:51:34.831Z,1.01
2019-01-29T23:54:03.075Z,1.00
2019-01-29T23:56:30.956Z,1.01
2019-01-29T23:58:59.078Z,0.96
